Flight Track Log - Related Links

Times and Time Zones

All times are in EDT time to prevent confusion due to time zone crossing. See the CPZ5714 flight status page for this flight to view local times or setup timezone preferences in your user account.

Time Position Orientation Groundspeed Altitude Reporting Facility
EDT Latitude Longitude Course Direction KTS MPH feet Rate Location/Type
Tue 11:26:05 AM 44.8833 -93.2833 101° East 182 209 2,400  Level Minneapolis TRACON
Tue 11:27:31 AM 44.8372 -93.3522 227° Southwest 255 293 4,800 2,392 Climbing Minneapolis Center
Tue 11:28:00 AM 44.7955 -92.5479 141° Southeast  Level Estimated
Tue 11:28:33 AM 44.7717 -93.2589 135° Southeast 289 333 8,300  Level Minneapolis Center
Tue 11:29:00 AM 44.7732 -92.3798 100° East  Level Estimated
Tue 11:29:35 AM 44.7272 -93.1736 126° Southeast 299 344 10,600  Level Minneapolis Center
Tue 11:30:00 AM 44.7508 -92.2118 101° East  Level Estimated
Tue 11:30:37 AM 44.6694 -93.0642 127° Southeast 352 405 12,200  Level Minneapolis Center
Tue 11:31:00 AM 44.7291 -92.0517 101° East  Level Estimated
Tue 11:31:39 AM 44.5975 -92.9286 127° Southeast 358 412 14,800  Level Minneapolis Center
Tue 11:32:41 AM 44.5347 -92.8100 127° Southeast 376 433 17,100 2,032 Climbing Minneapolis Center
Tue 11:33:43 AM 44.4708 -92.6906 127° Southeast 381 438 19,000 1,742 Climbing Minneapolis Center
Tue 11:34:45 AM 44.4039 -92.5664 127° Southeast 396 456 20,700 1,645 Climbing Minneapolis Center
Tue 11:35:47 AM 44.3356 -92.4367 126° Southeast 411 473 22,400 1,548 Climbing Minneapolis Center
Tue 11:36:49 AM 44.2750 -92.2967 121° Southeast 419 482 23,900 1,500 Climbing Minneapolis Center
Tue 11:37:51 AM 44.2003 -92.1231 121° Southeast 432 497 25,500 1,355 Climbing Minneapolis Center
Tue 11:38:53 AM 44.1361 -91.9764 121° Southeast 441 507 26,700 1,065 Climbing Minneapolis Center
Tue 11:39:55 AM 44.0708 -91.8275 121° Southeast 447 514 27,700 871 Climbing Minneapolis Center
Tue 11:40:57 AM 44.0042 -91.6739 121° Southeast 460 529 28,500 829 Climbing Minneapolis Center
Tue 11:41:58 AM 43.9253 -91.4983 122° Southeast 471 542 29,400 878 Climbing Minneapolis Center
Tue 11:43:00 AM 43.8450 -91.3531 127° Southeast 473 544 30,300 774 Climbing Minneapolis Center
Tue 11:44:02 AM 43.7586 -91.2158 131° Southeast 474 545 31,000 581 Climbing Minneapolis Center
Tue 11:45:04 AM 43.6722 -91.0758 130° Southeast 478 550 31,500 532 Climbing Minneapolis Center
Tue 11:46:06 AM 43.5847 -90.9331 130° Southeast 482 555 32,100 677 Climbing Minneapolis Center
Tue 11:47:08 AM 43.4775 -90.7606 131° Southeast 491 565 32,900 435 Climbing Minneapolis Center
Tue 11:48:10 AM 43.3883 -90.6175 131° Southeast 491 565 33,000 48 Climbing Minneapolis Center
Tue 11:49:12 AM 43.2997 -90.4756 131° Southeast 492 566 33,000  Level Minneapolis Center
Tue 11:50:16 AM 43.2128 -90.3361 131° Southeast 490 564 33,000  Level Chicago Center
Tue 11:51:19 AM 43.1247 -90.2006 132° Southeast 484 557 33,000  Level Chicago Center
Tue 11:52:21 AM 43.0208 -90.0317 130° Southeast 484 557 33,000  Level Chicago Center
Tue 11:53:23 AM 42.9414 -89.8861 127° Southeast 484 557 33,000  Level Chicago Center
Tue 11:54:25 AM 42.8683 -89.7303 123° Southeast 488 562 33,000  Level Chicago Center
Tue 11:55:27 AM 42.7944 -89.5789 124° Southeast 487 560 33,000  Level Chicago Center
Tue 11:56:29 AM 42.7056 -89.3994 124° Southeast 485 558 33,000  Level Chicago Center
Tue 11:57:31 AM 42.6331 -89.2508 124° Southeast 478 550 33,000 -435 Level Chicago Center
Tue 11:58:33 AM 42.5597 -89.1047 124° Southeast 474 545 32,100 -960 Descending Chicago Center
Tue 11:59:36 AM 42.4867 -88.9586 124° Southeast 472 543 31,000 -528 Descending Chicago Center
Tue 12:00:38 PM 42.4142 -88.8125 124° Southeast 472 543 31,000  Level Chicago Center
Tue 12:01:40 PM 42.3256 -88.6364 124° Southeast 472 543 31,000  Level Chicago Center
Tue 12:02:42 PM 42.2597 -88.5069 124° Southeast 474 545 31,000  Level Chicago Center
Tue 12:03:44 PM 42.1850 -88.3586 124° Southeast 476 548 31,000  Level Chicago Center
Tue 12:04:46 PM 42.0967 -88.1853 124° Southeast 474 545 31,000  Level Chicago Center
Tue 12:05:48 PM 42.0225 -88.0425 125° Southeast 470 541 31,000  Level Chicago Center
Tue 12:06:51 PM 41.9994 -87.8675 100° East 474 545 31,000  Level Chicago Center
Tue 12:07:53 PM 41.9978 -87.6872 91° East 478 550 31,000  Level Chicago Center
Tue 12:08:55 PM 41.9969 -87.5061 90° East 479 551 31,000  Level Chicago Center
Tue 12:09:57 PM 41.9933 -87.3222 91° East 489 563 31,000  Level Chicago Center
Tue 12:10:59 PM 41.9903 -87.1067 91° East 485 558 31,000  Level Chicago Center
Tue 12:12:01 PM 41.9883 -86.9256 91° East 485 558 31,000  Level Chicago Center
Tue 12:13:03 PM 41.9853 -86.7453 91° East 485 558 31,000  Level Chicago Center
Tue 12:14:05 PM 41.9825 -86.5808 91° East 484 557 31,000  Level Chicago Center
Tue 12:15:08 PM 41.9781 -86.3667 92° East 482 555 31,000  Level Chicago Center
Tue 12:16:10 PM 41.9744 -86.1864 91° East 482 555 31,000  Level Chicago Center
Tue 12:17:12 PM 41.9703 -86.0067 92° East 481 554 31,000 194 Level Chicago Center
Tue 12:18:14 PM 41.9658 -85.8253 92° East 482 555 31,400 629 Climbing Chicago Center
Tue 12:19:16 PM 41.9628 -85.6428 91° East 482 555 32,300 823 Climbing Chicago Center
Tue 12:20:18 PM 41.9583 -85.4608 92° East 483 556 33,100 726 Climbing Chicago Center
Tue 12:21:20 PM 41.9528 -85.2794 92° East 482 555 33,800 677 Climbing Chicago Center
Tue 12:22:22 PM 41.9508 -85.0597 91° East 487 560 34,500 576 Climbing Chicago Center
Tue 12:23:25 PM 41.9500 -84.8783 90° East 486 559 35,000 240 Climbing Chicago Center
Tue 12:24:27 PM 41.9486 -84.6939 91° East 491 565 35,000  Level Chicago Center
Tue 12:25:29 PM 41.9475 -84.5153 90° East 484 557 35,000  Level Chicago Center
Tue 12:26:31 PM 41.9461 -84.3361 91° East 482 555 35,000  Level Chicago Center
Tue 12:27:33 PM 41.9433 -84.1578 91° East 479 551 35,000  Level Chicago Center
Tue 12:28:35 PM 41.9411 -83.9731 91° East 481 554 35,000  Level Chicago Center
Tue 12:29:37 PM 41.9392 -83.7586 91° East 480 552 35,000  Level Chicago Center
Tue 12:30:54 PM 41.9350 -83.5372 91° East 480 552 35,000  Level Cleveland Center
Tue 12:31:56 PM 41.9333 -83.3575 91° East 480 552 35,000  Level Cleveland Center
Tue 12:32:58 PM 41.9325 -83.1803 90° East 478 550 35,000  Level Cleveland Center
Tue 12:34:00 PM 41.9319 -83.0050 90° East 476 548 35,000  Level Cleveland Center
Tue 12:35:02 PM 41.9297 -82.8297 91° East 475 547 35,000  Level Cleveland Center
Tue 12:36:05 PM 41.9281 -82.6194 91° East 475 547 35,000  Level Cleveland Center
Tue 12:37:07 PM 41.9264 -82.4442 91° East 475 547 35,000  Level Cleveland Center
Tue 12:38:09 PM 41.9231 -82.2697 91° East 473 544 35,000  Level Cleveland Center
Tue 12:39:11 PM 41.9219 -82.0800 90° East 472 543 35,000  Level Cleveland Center
Tue 12:40:13 PM 41.9197 -81.9039 91° East 470 541 35,000  Level Cleveland Center
Tue 12:41:15 PM 41.9092 -81.7286 95° East 468 539 35,000  Level Cleveland Center
Tue 12:42:17 PM 41.8928 -81.5539 97° East 467 537 35,000  Level Cleveland Center
Tue 12:43:19 PM 41.8769 -81.3792 97° East 466 536 35,000  Level Cleveland Center
Tue 12:44:21 PM 41.8608 -81.2058 97° East 463 533 35,000  Level Cleveland Center
Tue 12:45:24 PM 41.8436 -81.0286 97° East 470 541 35,000  Level Cleveland Center
Tue 12:46:26 PM 41.8239 -80.8194 97° East 479 551 35,000  Level Cleveland Center
Tue 12:47:28 PM 41.8069 -80.6386 97° East 481 554 35,000  Level Cleveland Center
Tue 12:48:30 PM 41.7886 -80.4556 98° East 486 559 35,000  Level Cleveland Center
Tue 12:49:32 PM 41.7706 -80.2739 98° East 489 563 35,000  Level Cleveland Center
Tue 12:50:34 PM 41.7525 -80.0936 98° East 485 558 35,000  Level Cleveland Center
Tue 12:51:36 PM 41.7339 -79.9139 98° East 484 557 35,000  Level Cleveland Center
Tue 12:52:38 PM 41.7156 -79.7322 98° East 485 558 35,000  Level Cleveland Center
Tue 12:53:40 PM 41.6928 -79.5325 99° East 485 558 35,000  Level Cleveland Center
Tue 12:54:42 PM 41.6731 -79.3542 98° East 485 558 35,000  Level Cleveland Center
Tue 12:55:45 PM 41.6528 -79.1747 99° East 488 562 35,000  Level Cleveland Center
Tue 12:56:47 PM 41.6344 -78.9958 98° East 488 562 35,000  Level Cleveland Center
Tue 12:57:49 PM 41.6089 -78.7819 99° East 488 562 35,000  Level Cleveland Center
Tue 12:58:51 PM 41.5881 -78.6033 99° East 488 562 35,000  Level Cleveland Center
Tue 12:59:53 PM 41.5681 -78.4256 98° East 488 562 35,000 -726 Level Cleveland Center
Tue 01:00:55 PM 41.5469 -78.2514 99° East 481 554 33,500 -1,548 Descending Cleveland Center
Tue 01:01:57 PM 41.5256 -78.0764 99° East 480 552 31,800 -1,210 Descending Cleveland Center
Tue 01:02:59 PM 41.5031 -77.9000 100° East 481 554 31,000 -387 Descending Cleveland Center
Tue 01:04:01 PM 41.4725 -77.6875 101° East 483 556 31,000  Level Cleveland Center
Tue 01:05:03 PM 41.4472 -77.5089 101° East 491 565 31,000  Level Cleveland Center
Tue 01:06:05 PM 41.4211 -77.3319 101° East 490 564 31,000  Level Cleveland Center
Tue 01:07:15 PM 41.3903 -77.1369 102° East 488 562 31,000  Level New York Center
Tue 01:08:16 PM 41.3642 -76.9603 101° East 488 562 31,000 -836 Level New York Center
Tue 01:09:17 PM 41.3356 -76.7892 103° East 488 562 29,300 -2,083 Descending New York Center
Tue 01:10:17 PM 41.2978 -76.6283 107° East 472 543 26,800 -2,462 Descending New York Center
Tue 01:11:14 PM 41.2533 -76.4697 110° East 460 529 24,500 -2,521 Descending New York Center
Tue 01:12:16 PM 41.2072 -76.3006 110° East 449 517 21,800 -2,479 Descending New York Center
Tue 01:13:15 PM 41.1681 -76.1539 109° East 438 504 19,500 -2,067 Descending New York Center
Tue 01:14:15 PM 41.1308 -76.0131 109° East 419 482 17,700 -1,623 Descending New York Center
Tue 01:15:17 PM 41.0950 -75.8756 109° East 405 466 16,200 -1,450 Descending New York Center
Tue 01:16:15 PM 41.0608 -75.7519 110° East 393 452 14,800 -1,462 Descending New York Center
Tue 01:17:16 PM 41.0231 -75.6089 109° East 382 440 13,300 -1,350 Descending New York Center
Tue 01:18:15 PM 40.9864 -75.4853 111° Southeast 371 427 12,100 -1,091 Descending New York Center
Tue 01:19:17 PM 40.9553 -75.3758 111° Southeast 366 421 11,100 -984 Descending New York Center
Tue 01:20:17 PM 40.9222 -75.2583 110° East 348 400 10,100 -1,119 Descending New York Center
Tue 01:21:15 PM 40.8911 -75.1411 109° East 319 367 8,900 -1,008 Descending New York Center
Tue 01:22:16 PM 40.8650 -75.0569 112° Southeast 308 354 8,100 -800 Descending New York Center
Tue 01:23:15 PM 40.8169 -74.9469 120° Southeast 295 339 7,300 -550 Descending New York Center
Tue 01:24:16 PM 40.7586 -74.8886 143° Southeast 287 330 7,000 -248 Descending New York Center
Tue 01:25:16 PM 40.6942 -74.8244 143° Southeast 280 322 6,800 -504 Descending New York Center
Tue 01:26:15 PM 40.6631 -74.7569 121° Southeast 246 283 6,000 -400 Descending New York Center
Tue 01:27:16 PM 40.6844 -74.6817 69° East 191 220 6,000  Level New York Center
Tue 01:28:17 PM 40.7417 -74.6522 21° North 215 247 6,000  Level New York Center
Tue 01:29:15 PM 40.8092 -74.6203 20° North 225 259 6,000 -202 Level New York Center
Tue 01:30:16 PM 40.8606 -74.5819 29° Northeast 230 265 5,600 -492 Descending New York Center
Tue 01:31:17 PM 40.9189 -74.5194 39° Northeast 240 276 5,000 -298 Descending New York Center
Tue 01:32:17 PM 40.9561 -74.4583 51° Northeast 240 276 5,000  Level New York Center
Tue 01:33:16 PM 40.9675 -74.3600 81° East 235 270 5,000 -432 Level New York Center
Tue 01:34:22 PM 40.9667 -74.2500 91° East 243 280 4,100 -455 Descending New York TRACON
Tue 01:35:28 PM 40.9667 -74.1667 90° East 216 249 4,000 -50 Descending New York TRACON
Tue 01:36:22 PM 40.9333 -74.1167 131° Southeast 203 234 4,000  Level New York TRACON
Tue 01:37:16 PM 40.9000 -74.0833 143° Southeast 185 213 4,000 -263 Level New York TRACON
Tue 01:38:16 PM 40.8500 -74.0500 153° Southeast 182 209 3,500 -650 Descending New York TRACON
Tue 01:39:16 PM 40.8167 -74.0833 217° Southwest 163 188 2,700 -850 Descending New York TRACON
Tue 01:40:16 PM 40.7833 -74.1167 217° Southwest 162 186 1,800 -800 Descending New York TRACON
Tue 01:41:16 PM 40.7500 -74.1333 201° Southwest 133 153 1,100 -700 Descending New York TRACON
Tue 01:42:16 PM 40.7167 -74.1500 201° Southwest 135 155 400 -700 Descending New York TRACON

Login

Don't have an account? Register now (free) for customized features, flight alerts, and more!